Time;durP1;ratioP1;P1;durP2;ratioP2;P2;SDS_P1;SDS_P2;PMS_P1;PMS_P2;Temp;Humidity;BMP_temperature;BMP_pressure;BME280_temperature;BME280_humidity;BME280_pressure;Samples;Min_cycle;Max_cycle;Signal;HPM_P1;HPM_P2
2024/03/12 00:02:00;;;;;;;0.20;0.20;;;;;;;10.46;84.96;100700.28;4934400;29;20114;-91
2024/03/12 00:04:28;;;;;;;0.20;0.20;;;;;;;10.46;84.23;100695.13;4918787;29;20032;-90
2024/03/12 00:06:54;;;;;;;0.20;0.20;;;;;;;10.48;84.94;100703.66;4934630;29;20031;-91
2024/03/12 00:09:22;;;;;;;0.20;0.20;;;;;;;10.56;84.47;100704.13;4918458;29;20059;-92
2024/03/12 00:11:48;;;;;;;0.20;0.20;;;;;;;10.53;84.36;100693.94;4918773;29;20020;-91
2024/03/12 00:14:14;;;;;;;0.20;0.20;;;;;;;10.49;84.82;100681.19;4934469;29;20043;-90
2024/03/12 00:16:40;;;;;;;0.20;0.20;;;;;;;10.55;85.36;100691.28;4950058;29;20122;-90
2024/03/12 00:19:09;;;;;;;0.30;0.30;;;;;;;10.58;85.07;100685.94;4934275;29;20034;-91
2024/03/12 00:21:36;;;;;;;0.20;0.20;;;;;;;10.63;83.76;100674.47;4918920;29;20122;-91
2024/03/12 00:24:03;;;;;;;0.20;0.20;;;;;;;10.66;83.53;100664.88;4918875;29;20038;-91
2024/03/12 00:26:31;;;;;;;0.20;0.20;;;;;;;10.68;83.24;100670.81;4902867;29;20079;-90
2024/03/12 00:28:56;;;;;;;0.20;0.20;;;;;;;10.64;83.08;100677.91;4934316;29;20514;-90
2024/03/12 00:31:22;;;;;;;0.20;0.20;;;;;;;10.54;84.25;100680.09;4918162;29;20126;-90
2024/03/12 00:33:47;;;;;;;0.20;0.20;;;;;;;10.61;83.80;100689.22;4902120;29;20031;-91
2024/03/12 00:36:13;;;;;;;0.20;0.20;;;;;;;10.47;83.74;100655.41;4902442;29;20032;-91
2024/03/12 00:38:38;;;;;;;0.20;0.20;;;;;;;10.63;84.07;100682.22;4934116;29;20024;-91
2024/03/12 00:41:04;;;;;;;0.20;0.20;;;;;;;10.63;83.79;100681.41;4918236;29;20027;-91
2024/03/12 00:43:32;;;;;;;0.20;0.20;;;;;;;10.57;84.48;100687.69;4933827;29;20535;-90
2024/03/12 00:45:59;;;;;;;0.20;0.20;;;;;;;10.57;84.71;100681.69;4933844;29;20031;-91
2024/03/12 00:48:25;;;;;;;0.20;0.20;;;;;;;10.55;84.67;100681.75;4933374;29;20028;-91
2024/03/12 00:50:50;;;;;;;0.20;0.20;;;;;;;10.60;83.95;100692.72;4933929;29;20062;-91
2024/03/12 00:53:17;;;;;;;0.20;0.20;;;;;;;10.56;83.68;100683.44;4918058;29;20038;-91
2024/03/12 00:55:47;;;;;;;0.30;0.30;;;;;;;10.61;84.30;100698.72;4949593;29;20122;-91
2024/03/12 00:58:13;;;;;;;0.20;0.20;;;;;;;10.54;84.32;100694.78;4918260;29;20410;-90
2024/03/12 01:00:39;;;;;;;0.20;0.20;;;;;;;10.50;85.13;100685.47;4933692;29;20031;-91
2024/03/12 01:03:08;;;;;;;0.20;0.20;;;;;;;10.55;85.01;100696.44;4917682;29;20035;-89
2024/03/12 01:05:36;;;;;;;0.20;0.20;;;;;;;10.54;84.65;100697.34;4918221;29;20027;-91
2024/03/12 01:08:01;;;;;;;0.20;0.20;;;;;;;10.50;84.67;100712.16;4918274;29;20035;-90
2024/03/12 01:10:28;;;;;;;0.20;0.20;;;;;;;10.56;85.27;100706.72;4917758;29;20505;-90
2024/03/12 01:12:55;;;;;;;0.20;0.20;;;;;;;10.48;84.88;100687.28;4933682;29;20174;-91
2024/03/12 01:15:23;;;;;;;0.20;0.20;;;;;;;10.46;85.20;100681.34;4902056;29;20035;-91
2024/03/12 01:17:49;;;;;;;0.20;0.20;;;;;;;10.48;84.71;100680.38;4917853;29;20035;-90
2024/03/12 01:20:19;;;;;;;0.20;0.20;;;;;;;10.45;84.79;100674.50;4917767;29;20048;-92
2024/03/12 01:22:44;;;;;;;0.20;0.20;;;;;;;10.40;85.01;100682.47;4918088;29;20032;-90
2024/03/12 01:25:10;;;;;;;0.20;0.20;;;;;;;10.39;85.12;100683.38;4949378;29;20504;-91
2024/03/12 01:27:36;;;;;;;0.20;0.20;;;;;;;10.29;85.00;100697.66;4933345;29;20099;-90
2024/03/12 01:30:14;;;;;;;0.20;0.20;;;;;;;10.30;85.72;100695.00;4933282;29;20031;-90
2024/03/12 01:32:40;;;;;;;0.20;0.20;;;;;;;10.25;85.34;100696.13;4934305;29;20070;-91
2024/03/12 01:35:08;;;;;;;0.20;0.20;;;;;;;10.23;86.05;100700.53;4933163;29;20110;-91
2024/03/12 01:37:45;;;;;;;0.20;0.20;;;;;;;10.22;86.26;100693.66;4917954;29;20118;-90
2024/03/12 01:40:27;;;;;;;0.20;0.20;;;;;;;10.21;86.10;100697.97;4933883;29;20099;-90
2024/03/12 01:42:56;;;;;;;0.20;0.20;;;;;;;10.12;86.40;100690.63;4934272;29;20092;-91
2024/03/12 01:45:24;;;;;;;0.20;0.20;;;;;;;10.09;86.79;100688.19;4933269;29;20055;-89
2024/03/12 01:47:50;;;;;;;0.20;0.20;;;;;;;10.12;86.89;100695.81;4917253;29;20114;-90
2024/03/12 01:50:18;;;;;;;0.20;0.20;;;;;;;10.21;86.23;100695.38;4933058;29;20139;-91
2024/03/12 01:52:46;;;;;;;0.20;0.20;;;;;;;10.21;85.75;100681.63;4902879;29;20052;-90
2024/03/12 01:55:11;;;;;;;0.20;0.20;;;;;;;10.18;86.12;100680.03;4933215;29;20043;-91
2024/03/12 01:57:41;;;;;;;0.20;0.20;;;;;;;10.23;84.97;100685.88;4917408;29;20528;-91
2024/03/12 02:00:13;;;;;;;0.20;0.20;;;;;;;10.07;85.26;100677.94;4916983;29;20123;-91
2024/03/12 02:02:41;;;;;;;0.20;0.20;;;;;;;10.12;85.54;100689.81;4933316;29;20607;-91
2024/03/12 02:05:10;;;;;;;0.20;0.20;;;;;;;10.06;85.10;100686.59;4933586;29;20055;-89
2024/03/12 02:07:45;;;;;;;0.20;0.20;;;;;;;9.98;84.83;100683.53;4933182;29;20506;-90
2024/03/12 02:10:11;;;;;;;0.20;0.20;;;;;;;9.91;85.57;100682.13;4918536;29;20115;-91
2024/03/12 02:12:37;;;;;;;0.20;0.20;;;;;;;10.00;85.08;100686.88;4932922;29;20038;-91
2024/03/12 02:15:03;;;;;;;0.20;0.20;;;;;;;9.97;85.14;100681.00;4916679;29;20110;-91
2024/03/12 02:17:29;;;;;;;0.20;0.20;;;;;;;9.97;84.94;100675.84;4948894;29;20027;-90
2024/03/12 02:19:55;;;;;;;0.20;0.20;;;;;;;9.85;85.13;100672.06;4917506;29;20036;-91
2024/03/12 02:22:21;;;;;;;0.20;0.20;;;;;;;9.85;85.55;100669.50;4932890;29;20059;-90
2024/03/12 02:24:47;;;;;;;0.20;0.20;;;;;;;9.84;85.27;100673.00;4917164;29;20032;-90
2024/03/12 02:27:13;;;;;;;0.20;0.20;;;;;;;9.88;85.07;100669.34;4917183;29;20141;-89
2024/03/12 02:29:38;;;;;;;0.20;0.20;;;;;;;9.92;85.02;100668.28;4916890;29;20050;-90
2024/03/12 02:32:04;;;;;;;0.20;0.20;;;;;;;9.89;85.15;100662.44;4932715;29;20173;-90
2024/03/12 02:34:29;;;;;;;0.20;0.20;;;;;;;9.86;85.10;100660.00;4935490;29;20024;-90
2024/03/12 02:36:56;;;;;;;0.20;0.20;;;;;;;9.81;85.06;100670.53;4936245;29;20036;-89
2024/03/12 02:39:21;;;;;;;0.20;0.20;;;;;;;9.77;85.26;100672.41;4920343;29;20032;-91
2024/03/12 02:41:47;;;;;;;0.20;0.20;;;;;;;9.74;85.65;100669.97;4936158;29;20036;-90
2024/03/12 02:44:12;;;;;;;0.20;0.20;;;;;;;9.78;85.93;100665.50;4904120;29;20078;-91
2024/03/12 02:46:38;;;;;;;0.20;0.20;;;;;;;9.77;85.80;100661.25;4904424;29;20421;-91
2024/03/12 02:49:04;;;;;;;0.20;0.20;;;;;;;9.81;86.02;100662.78;4920166;29;20502;-90
2024/03/12 02:51:30;;;;;;;0.20;0.20;;;;;;;9.86;85.23;100657.41;4920202;29;20043;-90
2024/03/12 02:53:55;;;;;;;0.20;0.20;;;;;;;9.76;85.20;100667.31;4920056;29;20031;-90
2024/03/12 02:56:21;;;;;;;0.20;0.20;;;;;;;9.70;85.71;100644.34;4920046;29;20514;-90
2024/03/12 02:58:47;;;;;;;0.20;0.20;;;;;;;9.74;85.52;100643.31;4935548;29;20511;-90
2024/03/12 03:01:15;;;;;;;0.20;0.20;;;;;;;9.68;85.98;100635.81;4920055;29;20028;-92
2024/03/12 03:03:41;;;;;;;0.20;0.20;;;;;;;9.73;85.65;100657.09;4936968;29;20035;-91
2024/03/12 03:06:07;;;;;;;0.20;0.20;;;;;;;9.75;85.35;100655.31;4904447;29;20039;-90
2024/03/12 03:08:33;;;;;;;0.20;0.20;;;;;;;9.69;85.28;100659.00;4919700;29;20035;-90
2024/03/12 03:10:58;;;;;;;0.20;0.20;;;;;;;9.73;85.53;100657.09;4935738;29;20059;-91
2024/03/12 03:13:25;;;;;;;0.20;0.20;;;;;;;9.75;85.72;100660.47;4919485;29;20470;-91
2024/03/12 03:15:51;;;;;;;0.20;0.20;;;;;;;9.75;85.82;100666.47;4904068;29;20031;-90
2024/03/12 03:18:16;;;;;;;0.20;0.20;;;;;;;9.74;85.46;100658.81;4935612;29;20110;-91
2024/03/12 03:20:42;;;;;;;0.20;0.20;;;;;;;9.80;85.40;100652.50;4935687;29;20077;-91
2024/03/12 03:23:07;;;;;;;0.20;0.20;;;;;;;9.77;85.15;100648.31;4935367;29;20110;-90
2024/03/12 03:25:33;;;;;;;0.20;0.20;;;;;;;9.71;84.38;100646.00;4919577;29;20074;-91
2024/03/12 03:27:59;;;;;;;0.20;0.20;;;;;;;9.71;84.68;100654.59;4919320;29;20028;-91
2024/03/12 03:30:24;;;;;;;0.20;0.20;;;;;;;9.61;84.82;100644.75;4919504;29;20478;-90
2024/03/12 03:32:50;;;;;;;0.20;0.20;;;;;;;9.75;84.32;100653.56;4903808;29;20027;-90
2024/03/12 03:35:17;;;;;;;0.20;0.20;;;;;;;9.73;84.63;100657.09;4919226;29;20035;-91
2024/03/12 03:37:43;;;;;;;0.20;0.20;;;;;;;9.71;84.24;100653.75;4919639;29;20035;-90
2024/03/12 03:40:17;;;;;;;0.20;0.20;;;;;;;9.68;84.28;100638.41;4919345;29;20028;-90
2024/03/12 03:42:43;;;;;;;0.20;0.20;;;;;;;9.67;84.46;100652.22;4934709;29;20118;-91
2024/03/12 03:45:08;;;;;;;0.20;0.20;;;;;;;9.73;84.46;100651.94;4919168;29;20035;-90
2024/03/12 03:47:34;;;;;;;0.20;0.20;;;;;;;9.67;85.04;100647.06;4919046;29;20035;-91
2024/03/12 03:50:05;;;;;;;0.20;0.20;;;;;;;9.75;84.73;100668.22;4936104;29;20134;-90
2024/03/12 03:52:30;;;;;;;0.20;0.20;;;;;;;9.75;84.87;100668.22;4919379;29;20131;-90
2024/03/12 03:54:56;;;;;;;0.20;0.20;;;;;;;9.80;84.83;100663.69;4934820;29;20472;-89
2024/03/12 03:57:22;;;;;;;0.20;0.20;;;;;;;9.78;84.62;100665.50;4918509;29;20054;-91
2024/03/12 03:59:49;;;;;;;0.20;0.20;;;;;;;9.77;84.80;100658.66;4935833;29;20478;-90
2024/03/12 04:02:16;;;;;;;0.20;0.20;;;;;;;9.85;84.77;100669.50;4919284;29;20065;-82
2024/03/12 04:04:42;;;;;;;0.20;0.20;;;;;;;9.93;83.98;100664.81;4932691;29;20078;-83
2024/03/12 04:07:08;;;;;;;0.20;0.20;;;;;;;9.72;84.02;100635.59;4901766;29;20498;-82
2024/03/12 04:09:34;;;;;;;0.20;0.20;;;;;;;9.89;83.93;100660.69;4934103;29;20047;-84
2024/03/12 04:12:00;;;;;;;0.20;0.20;;;;;;;9.93;83.95;100667.41;4934442;29;20031;-92
2024/03/12 04:14:26;;;;;;;0.20;0.20;;;;;;;10.00;83.47;100675.69;4948703;29;20123;-91
2024/03/12 04:16:51;;;;;;;0.20;0.20;;;;;;;9.94;83.31;100676.00;4953219;29;20512;-92
2024/03/12 04:19:19;;;;;;;0.20;0.20;;;;;;;9.97;83.00;100681.00;4969276;28;20118;-90
2024/03/12 04:21:44;;;;;;;0.20;0.20;;;;;;;9.91;83.11;100681.28;4953456;29;20039;-90
2024/03/12 04:24:10;;;;;;;0.20;0.20;;;;;;;9.89;83.85;100686.53;4969461;28;20039;-92
2024/03/12 04:26:36;;;;;;;0.20;0.20;;;;;;;9.87;83.60;100695.25;4952674;29;20118;-89
2024/03/12 04:29:02;;;;;;;0.20;0.20;;;;;;;9.85;83.52;100692.75;4953569;29;20413;-91
2024/03/12 04:31:28;;;;;;;0.20;0.20;;;;;;;9.82;84.24;100687.69;4937251;29;20023;-90
2024/03/12 04:33:53;;;;;;;0.20;0.20;;;;;;;9.80;84.52;100694.69;4952937;29;20032;-90
2024/03/12 04:36:22;;;;;;;0.20;0.20;;;;;;;9.84;84.59;100704.00;4968889;28;20662;-90
2024/03/12 04:38:49;;;;;;;0.20;0.20;;;;;;;9.86;84.19;100703.91;4969076;28;20031;-91
2024/03/12 04:41:17;;;;;;;0.20;0.20;;;;;;;9.93;84.70;100710.47;4952457;29;20039;-91
2024/03/12 04:43:42;;;;;;;0.20;0.20;;;;;;;9.85;84.63;100697.91;4953143;29;20545;-92
2024/03/12 04:46:09;;;;;;;0.20;0.20;;;;;;;9.88;84.55;100686.59;4952988;29;20110;-91
2024/03/12 04:48:35;;;;;;;0.20;0.20;;;;;;;9.92;84.87;100696.72;4951997;29;20142;-84
2024/03/12 04:51:02;;;;;;;0.20;0.20;;;;;;;9.93;84.53;100694.97;4951607;29;20039;-86
2024/03/12 04:53:27;;;;;;;0.20;0.20;;;;;;;9.90;83.96;100679.59;4935795;29;20035;-85
2024/03/12 04:55:53;;;;;;;0.20;0.20;;;;;;;9.95;84.22;100709.53;4951582;28;20395;-86
2024/03/12 04:58:19;;;;;;;0.20;0.20;;;;;;;9.98;84.68;100704.19;4951708;28;20027;-87
2024/03/12 05:00:44;;;;;;;0.20;0.20;;;;;;;10.01;84.27;100704.06;4951707;29;20023;-86
2024/03/12 05:03:10;;;;;;;0.20;0.20;;;;;;;9.83;84.27;100678.19;4951594;29;20023;-87
2024/03/12 05:05:35;;;;;;;0.20;0.20;;;;;;;9.96;84.52;100694.84;4935652;29;20090;-86
2024/03/12 05:08:01;;;;;;;0.20;0.20;;;;;;;9.94;84.53;100707.00;4951527;28;20035;-86
2024/03/12 05:10:27;;;;;;;0.20;0.20;;;;;;;9.96;85.17;100706.03;4951502;29;20038;-86
2024/03/12 05:12:52;;;;;;;0.20;0.20;;;;;;;9.99;85.17;100710.22;4967387;28;20031;-88
2024/03/12 05:15:18;;;;;;;0.20;0.20;;;;;;;10.09;85.72;100708.03;4939195;29;20039;-89
2024/03/12 05:17:45;;;;;;;0.20;0.20;;;;;;;10.32;85.57;100710.44;4933423;29;20406;-89
2024/03/12 05:20:14;;;;;;;0.20;0.20;;;;;;;10.85;82.63;100707.06;4931528;29;21150;-89
2024/03/12 05:22:40;;;;;;;0.20;0.20;;;;;;;10.66;81.15;100712.28;4946082;29;20097;-84
2024/03/12 05:25:10;;;;;;;0.20;0.20;;;;;;;10.56;81.88;100714.47;4931416;29;20111;-91
2024/03/12 05:27:43;;;;;;;0.20;0.20;;;;;;;10.46;81.10;100709.81;4935140;29;20481;-87
2024/03/12 05:30:14;;;;;;;0.20;0.20;;;;;;;10.41;81.15;100715.19;4960236;28;20354;-87
2024/03/12 05:32:49;;;;;;;0.20;0.20;;;;;;;10.35;81.56;100718.06;4938197;29;20502;-91
2024/03/12 05:35:21;;;;;;;0.20;0.20;;;;;;;10.33;81.65;100720.72;4946895;29;20283;-83
2024/03/12 05:38:02;;;;;;;0.20;0.20;;;;;;;10.23;82.35;100713.47;4952298;28;20028;-88
2024/03/12 05:40:57;;;;;;;0.20;0.20;;;;;;;10.26;81.98;100723.66;4937154;29;20057;-88
2024/03/12 05:48:50;;;;;;;0.20;0.20;;;;;;;10.13;83.98;100735.41;4951768;29;20070;-85
2024/03/12 05:51:16;;;;;;;0.20;0.20;;;;;;;10.13;83.77;100728.53;4933071;29;20413;-82
2024/03/12 05:53:42;;;;;;;0.20;0.20;;;;;;;10.20;83.37;100727.31;4920234;29;20087;-88
2024/03/12 05:56:09;;;;;;;0.20;0.20;;;;;;;10.26;83.43;100734.84;4947442;29;20029;-80
2024/03/12 05:58:35;;;;;;;0.30;0.30;;;;;;;10.30;84.08;100730.34;4932562;29;20035;-82
2024/03/12 06:01:02;;;;;;;0.20;0.20;;;;;;;10.22;83.93;100722.09;4930273;29;20458;-82
2024/03/12 06:03:28;;;;;;;0.20;0.20;;;;;;;10.36;83.79;100735.25;4930645;29;20490;-81
2024/03/12 06:05:54;;;;;;;0.20;0.20;;;;;;;10.37;83.53;100736.94;4948820;29;20031;-89
2024/03/12 06:08:21;;;;;;;0.20;0.20;;;;;;;10.33;83.50;100730.25;4927083;29;20059;-91
2024/03/12 06:10:48;;;;;;;0.20;0.20;;;;;;;10.33;83.42;100730.25;4935908;29;20062;-91
2024/03/12 06:13:14;;;;;;;0.20;0.20;;;;;;;10.47;83.45;100727.84;4944491;29;20083;-86
2024/03/12 06:15:40;;;;;;;0.20;0.20;;;;;;;10.48;83.01;100714.00;4954527;29;20528;-92
2024/03/12 06:18:05;;;;;;;0.20;0.20;;;;;;;10.53;82.83;100727.56;4939253;28;20046;-92
2024/03/12 06:20:31;;;;;;;0.20;0.20;;;;;;;10.37;82.61;100705.91;4947979;29;20494;-87
2024/03/12 06:22:57;;;;;;;0.20;0.20;;;;;;;10.52;82.33;100725.88;4929305;29;20034;-89
2024/03/12 06:25:23;;;;;;;0.20;0.20;;;;;;;10.50;82.36;100727.69;4950644;29;20036;-91
2024/03/12 06:27:49;;;;;;;0.20;0.20;;;;;;;10.45;82.11;100721.91;4949330;29;20386;-91
2024/03/12 06:30:15;;;;;;;0.20;0.20;;;;;;;10.40;82.58;100713.50;4952967;28;20052;-88
2024/03/12 06:32:41;;;;;;;0.20;0.20;;;;;;;10.50;81.98;100722.50;4930846;29;20020;-90
2024/03/12 06:35:07;;;;;;;0.20;0.20;;;;;;;10.52;82.01;100723.31;4907673;29;20862;-89
2024/03/12 06:37:33;;;;;;;0.20;0.20;;;;;;;10.57;82.57;100710.97;4915742;29;20036;-86
2024/03/12 06:40:02;;;;;;;0.20;0.20;;;;;;;10.64;82.23;100714.13;4937754;29;20490;-84
2024/03/12 06:42:31;;;;;;;0.20;0.20;;;;;;;10.48;81.88;100684.69;4939325;29;20091;-90
2024/03/12 06:44:56;;;;;;;0.20;0.20;;;;;;;10.64;81.83;100719.28;4959979;29;20038;-83
2024/03/12 06:47:25;;;;;;;0.20;0.20;;;;;;;10.56;81.65;100705.88;4954753;28;20122;-88
2024/03/12 06:49:51;;;;;;;0.20;0.20;;;;;;;10.73;81.46;100729.19;4953575;29;20066;-87
2024/03/12 06:52:16;;;;;;;0.20;0.20;;;;;;;10.73;80.59;100715.44;4954152;28;20027;-94
2024/03/12 06:54:45;;;;;;;0.20;0.20;;;;;;;10.71;80.86;100714.63;4939431;29;20042;-86
2024/03/12 06:57:11;;;;;;;0.20;0.20;;;;;;;10.70;80.14;100718.13;4939062;29;20040;-92
2024/03/12 06:59:36;;;;;;;0.20;0.20;;;;;;;10.79;80.39;100722.88;4936849;29;20039;-93
2024/03/12 07:02:05;;;;;;;0.20;0.20;;;;;;;10.82;80.19;100723.59;4936924;29;20044;-92
2024/03/12 07:04:43;;;;;;;0.20;0.20;;;;;;;10.85;79.84;100723.44;4934025;29;20031;-94
2024/03/12 07:07:10;;;;;;;0.20;0.20;;;;;;;10.83;80.43;100721.84;4936142;29;20035;-93
2024/03/12 07:09:40;;;;;;;0.20;0.20;;;;;;;10.85;80.55;100700.13;4943586;29;20457;-85
2024/03/12 07:12:07;;;;;;;0.20;0.20;;;;;;;10.93;80.02;100707.53;4963738;28;20035;-84
2024/03/12 07:14:40;;;;;;;0.20;0.20;;;;;;;10.89;79.02;100713.75;4904207;29;20028;-87
2024/03/12 07:17:09;;;;;;;0.20;0.20;;;;;;;10.73;79.94;100718.00;4926474;29;20028;-90
2024/03/12 07:19:37;;;;;;;0.20;0.20;;;;;;;10.72;80.62;100714.59;4958040;28;20028;-93
2024/03/12 07:22:07;;;;;;;0.20;0.20;;;;;;;10.54;80.27;100694.78;4916691;29;20035;-86
2024/03/12 07:24:34;;;;;;;0.20;0.20;;;;;;;10.71;80.54;100709.47;4947724;29;20046;-86
2024/03/12 07:26:59;;;;;;;0.20;0.20;;;;;;;10.77;80.10;100724.72;4933888;29;20546;-87
2024/03/12 07:29:25;;;;;;;0.20;0.20;;;;;;;10.75;79.78;100723.94;4947379;29;20103;-87
2024/03/12 07:31:51;;;;;;;0.20;0.20;;;;;;;10.72;79.62;100721.53;4936953;29;20039;-86
2024/03/12 07:34:17;;;;;;;0.20;0.20;;;;;;;10.77;79.68;100735.06;4935867;29;20024;-90
2024/03/12 07:36:43;;;;;;;0.20;0.20;;;;;;;10.77;79.87;100746.25;4932622;29;20513;-86
2024/03/12 07:39:08;;;;;;;0.20;0.20;;;;;;;10.83;80.36;100755.47;4958231;28;21571;-87
2024/03/12 07:41:37;;;;;;;0.20;0.20;;;;;;;10.89;79.77;100750.00;4946114;29;20032;-88
2024/03/12 07:44:03;;;;;;;0.20;0.20;;;;;;;10.92;79.12;100762.81;4933631;29;20028;-89
2024/03/12 07:46:29;;;;;;;0.20;0.20;;;;;;;10.97;78.61;100757.41;4950183;29;20035;-93
2024/03/12 07:48:55;;;;;;;0.20;0.20;;;;;;;10.96;78.38;100755.72;4938657;29;20475;-91
2024/03/12 07:51:22;;;;;;;0.20;0.20;;;;;;;10.99;78.87;100751.22;4936426;29;20038;-90
2024/03/12 07:53:49;;;;;;;0.20;0.20;;;;;;;10.98;78.28;100757.31;4919352;29;20391;-85
2024/03/12 07:56:15;;;;;;;0.20;0.20;;;;;;;10.94;78.84;100760.13;4917411;29;20115;-85
2024/03/12 07:58:41;;;;;;;0.20;0.20;;;;;;;10.96;79.02;100745.38;4922398;29;20173;-88
2024/03/12 08:01:07;;;;;;;0.20;0.20;;;;;;;11.02;77.52;100750.25;4932201;29;20808;-84
2024/03/12 08:03:36;;;;;;;0.20;0.20;;;;;;;10.99;77.41;100756.41;4932822;29;20030;-85
2024/03/12 08:06:03;;;;;;;0.20;0.20;;;;;;;11.25;78.65;100768.09;4932455;29;20093;-91
2024/03/12 08:08:30;;;;;;;0.20;0.20;;;;;;;11.22;77.68;100768.25;4932973;29;20028;-91
2024/03/12 08:10:57;;;;;;;0.28;0.28;;;;;;;11.33;77.29;100767.72;4932366;29;20035;-92
2024/03/12 08:13:23;;;;;;;0.20;0.20;;;;;;;11.27;77.28;100768.00;4940581;29;20156;-87
2024/03/12 08:15:48;;;;;;;0.22;0.22;;;;;;;11.20;77.28;100770.03;4934715;29;20553;-84
2024/03/12 08:18:14;;;;;;;0.20;0.20;;;;;;;11.28;77.34;100773.09;4932503;29;20075;-88
2024/03/12 08:20:39;;;;;;;0.20;0.20;;;;;;;11.30;77.33;100771.25;4937866;29;20070;-92
2024/03/12 08:23:05;;;;;;;0.28;0.28;;;;;;;11.32;77.51;100782.41;4932206;29;20032;-90
2024/03/12 08:25:32;;;;;;;0.30;0.30;;;;;;;11.40;77.83;100779.41;4914483;29;20028;-90
2024/03/12 08:27:58;;;;;;;0.20;0.20;;;;;;;11.47;77.19;100773.03;4926744;29;20046;-93
2024/03/12 08:30:24;;;;;;;0.20;0.20;;;;;;;11.77;81.72;100773.22;4949484;28;20035;-89
2024/03/12 08:32:50;;;;;;;0.20;0.20;;;;;;;11.85;78.08;100783.22;4948896;29;20031;-87
2024/03/12 08:35:18;;;;;;;0.20;0.20;;;;;;;11.90;75.96;100782.09;4951379;29;20031;-85
2024/03/12 08:37:44;;;;;;;0.20;0.20;;;;;;;12.05;75.67;100790.81;4966549;28;20050;-83
2024/03/12 08:40:14;;;;;;;0.20;0.20;;;;;;;12.03;74.63;100790.91;4949535;28;20437;-93
2024/03/12 08:42:40;;;;;;;0.20;0.20;;;;;;;11.91;74.18;100767.38;4934545;29;20038;-86
2024/03/12 08:45:08;;;;;;;0.20;0.20;;;;;;;12.08;74.63;100785.44;4936940;29;20043;-91
2024/03/12 08:47:35;;;;;;;0.20;0.20;;;;;;;12.00;75.84;100780.69;4920480;29;20114;-89
2024/03/12 08:50:02;;;;;;;0.20;0.20;;;;;;;11.90;74.31;100768.28;4946193;28;20060;-88
2024/03/12 08:52:29;;;;;;;0.20;0.20;;;;;;;12.05;74.66;100790.81;4946557;29;20092;-95
2024/03/12 08:54:55;;;;;;;0.20;0.20;;;;;;;12.07;74.92;100778.59;4934849;29;20426;-91
2024/03/12 08:57:21;;;;;;;0.20;0.20;;;;;;;12.03;74.11;100769.31;4947173;28;20039;-90
2024/03/12 08:59:47;;;;;;;0.20;0.20;;;;;;;12.11;73.27;100779.28;4957460;28;20023;-91
2024/03/12 09:02:12;;;;;;;0.20;0.20;;;;;;;12.17;73.07;100772.00;4910799;29;20079;-88
2024/03/12 09:04:38;;;;;;;0.20;0.20;;;;;;;12.27;73.11;100765.41;4934164;29;20039;-91
2024/03/12 09:07:04;;;;;;;0.20;0.20;;;;;;;12.46;72.21;100779.97;4935712;29;20024;-89
2024/03/12 09:09:31;;;;;;;0.20;0.20;;;;;;;12.42;71.44;100783.69;4948901;29;20059;-88
2024/03/12 09:11:58;;;;;;;0.20;0.20;;;;;;;12.30;71.95;100775.63;4937782;29;20039;-93
2024/03/12 09:14:27;;;;;;;0.20;0.20;;;;;;;12.35;72.95;100773.63;4934808;29;20094;-91
2024/03/12 09:16:52;;;;;;;0.20;0.20;;;;;;;12.31;72.13;100777.31;4949768;29;20120;-88
2024/03/12 09:19:18;;;;;;;0.20;0.20;;;;;;;12.27;72.83;100773.19;4936208;29;20157;-93
2024/03/12 09:21:44;;;;;;;0.30;0.30;;;;;;;12.78;77.54;100781.66;4937711;29;20040;-91
2024/03/12 09:24:09;;;;;;;0.20;0.20;;;;;;;12.97;81.32;100762.44;4931852;29;20028;-89
2024/03/12 09:26:36;;;;;;;0.20;0.20;;;;;;;13.64;67.81;100769.78;4948383;29;20032;-93
2024/03/12 09:29:01;;;;;;;0.20;0.20;;;;;;;13.43;68.21;100766.69;4949102;29;20035;-93
2024/03/12 09:31:27;;;;;;;0.20;0.20;;;;;;;13.42;69.28;100772.81;4937746;29;20034;-93
2024/03/12 09:33:54;;;;;;;0.20;0.20;;;;;;;13.34;67.02;100764.63;4947463;29;20024;-91
2024/03/12 09:36:20;;;;;;;0.20;0.20;;;;;;;13.24;68.00;100758.31;4961551;28;20038;-91
2024/03/12 09:38:48;;;;;;;0.20;0.20;;;;;;;13.20;68.84;100755.06;4930960;29;20022;-93
2024/03/12 09:41:15;;;;;;;0.20;0.20;;;;;;;13.18;67.52;100751.69;4944743;29;20517;-87
2024/03/12 09:43:43;;;;;;;0.20;0.20;;;;;;;13.26;67.08;100751.25;4953318;28;20043;-88
2024/03/12 09:46:11;;;;;;;0.20;0.20;;;;;;;13.30;67.49;100757.13;4953844;28;20034;-86
2024/03/12 09:48:38;;;;;;;0.20;0.20;;;;;;;13.39;67.77;100734.03;4963198;28;20452;-87
2024/03/12 09:51:05;;;;;;;0.20;0.20;;;;;;;13.48;68.03;100751.69;4945389;29;20035;-92
2024/03/12 09:53:31;;;;;;;0.20;0.20;;;;;;;13.39;66.19;100749.63;4944637;29;20030;-82
2024/03/12 09:55:59;;;;;;;0.20;0.20;;;;;;;13.17;69.37;100739.63;4925964;29;20406;-87
2024/03/12 09:58:25;;;;;;;0.20;0.20;;;;;;;13.20;68.43;100733.44;4956645;28;20122;-91
2024/03/12 10:00:53;;;;;;;0.20;0.20;;;;;;;13.31;69.14;100738.84;4937074;29;20036;-89
2024/03/12 10:03:18;;;;;;;0.20;0.20;;;;;;;13.17;68.35;100736.16;4940167;29;20553;-89
2024/03/12 10:05:44;;;;;;;0.20;0.20;;;;;;;13.15;68.99;100738.00;4936309;29;20036;-87
2024/03/12 10:08:14;;;;;;;0.20;0.20;;;;;;;13.33;68.34;100739.59;4950729;28;20078;-90
2024/03/12 10:10:43;;;;;;;0.20;0.20;;;;;;;13.50;68.24;100743.78;4943750;29;20502;-85
2024/03/12 10:13:14;;;;;;;0.20;0.20;;;;;;;13.52;68.14;100736.75;4953799;29;20488;-89
2024/03/12 10:16:00;;;;;;;0.20;0.20;;;;;;;13.35;68.56;100739.50;4971998;28;20035;-92
2024/03/12 10:18:28;;;;;;;0.20;0.20;;;;;;;13.37;67.70;100722.03;4957662;28;20115;-87
2024/03/12 10:21:01;;;;;;;0.20;0.20;;;;;;;13.41;68.47;100729.56;4939804;29;20047;-89
2024/03/12 10:23:40;;;;;;;0.30;0.30;;;;;;;13.64;67.05;100733.41;4936184;29;20046;-87
2024/03/12 10:26:19;;;;;;;0.20;0.20;;;;;;;13.55;66.31;100730.50;4933679;29;20103;-87
2024/03/12 10:28:45;;;;;;;0.20;0.20;;;;;;;13.48;66.07;100712.72;4931002;29;20055;-87
2024/03/12 10:31:12;;;;;;;0.20;0.20;;;;;;;13.67;66.95;100722.00;4921794;29;20064;-84
2024/03/12 10:33:48;;;;;;;0.30;0.30;;;;;;;13.58;64.97;100725.16;4956028;28;20036;-86
2024/03/12 10:36:28;;;;;;;0.20;0.20;;;;;;;13.57;66.25;100724.31;4936672;29;20115;-89
2024/03/12 10:38:53;;;;;;;0.20;0.20;;;;;;;13.40;66.86;100727.06;4921172;29;20043;-88
2024/03/12 10:41:19;;;;;;;0.20;0.20;;;;;;;13.44;66.90;100713.78;4937159;29;20110;-83
2024/03/12 10:43:46;;;;;;;0.20;0.20;;;;;;;13.59;67.07;100716.44;4955977;28;20036;-87
2024/03/12 10:46:19;;;;;;;0.20;0.20;;;;;;;13.64;66.86;100709.16;4952149;28;20031;-84
2024/03/12 10:48:47;;;;;;;;;;;;;;;13.74;65.80;100715.47;4935328;29;20040;-87
2024/03/12 10:51:17;;;;;;;0.20;0.20;;;;;;;13.54;65.31;100701.09;4916202;29;20409;-86
2024/03/12 10:53:43;;;;;;;0.30;0.30;;;;;;;13.57;65.12;100707.84;4922054;29;20036;-91
2024/03/12 10:56:12;;;;;;;0.20;0.20;;;;;;;13.55;65.22;100699.31;4900655;29;20028;-89
2024/03/12 10:58:37;;;;;;;0.20;0.20;;;;;;;13.59;66.22;100701.66;4915924;29;20146;-86
2024/03/12 11:01:05;;;;;;;0.20;0.20;;;;;;;13.75;66.77;100706.75;4934525;29;20036;-88
2024/03/12 11:03:31;;;;;;;0.20;0.20;;;;;;;13.81;65.89;100711.59;4953503;28;20082;-82
2024/03/12 11:05:57;;;;;;;0.20;0.20;;;;;;;13.92;65.85;100711.78;4933387;29;20493;-84
2024/03/12 11:08:23;;;;;;;0.30;0.30;;;;;;;13.85;65.71;100699.22;4952976;29;20035;-92
2024/03/12 11:10:49;;;;;;;0.20;0.20;;;;;;;13.95;65.47;100698.56;4950213;29;20046;-85
2024/03/12 11:13:20;;;;;;;0.20;0.20;;;;;;;13.98;65.37;100692.38;4912172;29;20040;-92
2024/03/12 11:15:46;;;;;;;0.20;0.20;;;;;;;14.08;64.14;100688.25;4909014;29;20391;-88
2024/03/12 11:18:12;;;;;;;0.20;0.20;;;;;;;14.18;65.63;100693.72;4934777;29;20041;-90
2024/03/12 11:20:41;;;;;;;0.20;0.20;;;;;;;14.18;64.93;100683.31;4931894;29;20494;-85
2024/03/12 11:23:07;;;;;;;0.20;0.20;;;;;;;14.26;64.85;100689.72;4926147;29;20032;-89
2024/03/12 11:25:45;;;;;;;0.20;0.20;;;;;;;14.23;63.71;100683.84;4935610;29;20170;-91
2024/03/12 11:28:21;;;;;;;0.20;0.20;;;;;;;14.30;65.22;100683.38;4956496;29;20038;-90
2024/03/12 11:30:48;;;;;;;0.20;0.20;;;;;;;14.39;64.09;100687.16;4959632;28;20031;-91
2024/03/12 11:33:49;;;;;;;0.20;0.20;;;;;;;14.33;63.53;100684.94;4927493;29;20032;-86